Time;durP1;ratioP1;P1;durP2;ratioP2;P2;SDS_P1;SDS_P2;PMS_P1;PMS_P2;Temp;Humidity;BMP_temperature;BMP_pressure;BME280_temperature;BME280_humidity;BME280_pressure;Samples;Min_cycle;Max_cycle;Signal;HPM_P1;HPM_P2
2021/12/21 00:08:44;;;;;;;26.42;9.43;;;;;;;-1.82;100.00;101385.97;20905756;28;20052;-84
2021/12/21 00:29:03;;;;;;;21.73;8.43;;;;;;;-1.93;99.67;101383.66;20887178;28;20493;-84
2021/12/21 00:39:07;;;;;;;23.23;7.95;;;;;;;-1.87;99.58;101374.59;20885858;28;20109;-83
2021/12/21 00:49:16;;;;;;;23.08;8.60;;;;;;;-2.07;99.61;101365.88;20868474;28;20111;-84
2021/12/21 00:59:18;;;;;;;22.52;8.00;;;;;;;-2.05;99.30;101363.41;20894681;28;20050;-83
2021/12/21 01:29:57;;;;;;;18.55;7.82;;;;;;;-2.19;98.78;101354.13;20854504;28;20552;-83
2021/12/21 01:50:00;;;;;;;21.30;8.45;;;;;;;-2.17;98.69;101352.50;20922895;28;20045;-83
2021/12/21 02:00:05;;;;;;;19.10;7.28;;;;;;;-2.19;98.41;101343.88;20877942;28;20044;-84
2021/12/21 02:10:07;;;;;;;19.17;8.93;;;;;;;-2.24;98.00;101342.75;20902581;28;20127;-84
2021/12/21 02:20:37;;;;;;;16.83;7.10;;;;;;;-2.39;98.90;101340.28;20858083;28;20540;-84
2021/12/21 02:30:43;;;;;;;17.58;6.68;;;;;;;-2.38;98.15;101329.22;20899152;28;20564;-83
2021/12/21 02:40:45;;;;;;;18.00;6.32;;;;;;;-2.53;99.03;101325.88;20870600;28;20045;-83
2021/12/21 02:50:47;;;;;;;18.33;7.60;;;;;;;-2.55;98.77;101333.47;20940130;28;20490;-82
2021/12/21 03:00:49;;;;;;;23.50;6.80;;;;;;;-2.65;98.68;101326.97;20891146;28;20075;-82
2021/12/21 03:11:17;;;;;;;28.08;7.88;;;;;;;-2.62;98.75;101331.41;20869966;28;20509;-83
2021/12/21 03:21:18;;;;;;;16.83;7.55;;;;;;;-2.72;99.02;101316.34;20847334;28;20503;-83
2021/12/21 03:31:20;;;;;;;17.98;7.72;;;;;;;-2.81;99.14;101323.56;20909065;28;20053;-83
2021/12/21 03:41:22;;;;;;;17.58;6.28;;;;;;;-2.94;99.22;101297.25;20918669;28;20050;-83
2021/12/21 03:51:24;;;;;;;20.10;8.07;;;;;;;-2.94;99.58;101314.31;20930278;28;20106;-84
2021/12/21 04:01:25;;;;;;;19.23;7.25;;;;;;;-2.92;99.31;101308.50;20915168;28;20103;-83
2021/12/21 04:11:27;;;;;;;21.40;6.25;;;;;;;-3.04;99.34;101297.59;20852306;28;20544;-83
2021/12/21 04:21:28;;;;;;;17.90;7.70;;;;;;;-3.04;99.23;101295.03;20863287;28;20104;-83
2021/12/21 04:31:30;;;;;;;22.02;7.15;;;;;;;-3.08;99.46;101302.47;20827592;28;20049;-82
2021/12/21 04:41:31;;;;;;;31.48;9.82;;;;;;;-3.19;99.54;101294.22;20836184;28;20045;-83
2021/12/21 04:51:33;;;;;;;17.98;8.10;;;;;;;-3.22;100.00;101299.16;20899978;28;20049;-83
2021/12/21 05:01:34;;;;;;;24.02;7.65;;;;;;;-3.30;99.92;101303.00;20900226;28;20515;-83
2021/12/21 05:11:36;;;;;;;20.73;7.13;;;;;;;-3.29;100.00;101299.63;20930790;28;20137;-83
2021/12/21 05:21:38;;;;;;;16.33;7.53;;;;;;;-3.41;100.00;101277.66;20905122;28;20132;-83
2021/12/21 05:31:39;;;;;;;20.00;7.70;;;;;;;-3.36;100.00;101288.16;20869239;28;20091;-83
2021/12/21 05:41:50;;;;;;;18.02;7.40;;;;;;;-3.50;100.00;101282.28;20882403;28;20076;-83
2021/12/21 05:51:54;;;;;;;20.50;7.88;;;;;;;-3.50;100.00;101282.28;20901120;23;20606;-68
2021/12/21 06:01:55;;;;;;;18.43;8.50;;;;;;;-3.56;100.00;101297.31;20864528;28;20072;-68
2021/12/21 06:32:21;;;;;;;20.38;8.73;;;;;;;-3.70;100.00;101318.69;20862405;28;20107;-68
2021/12/21 06:42:24;;;;;;;27.85;11.00;;;;;;;-3.66;100.00;101318.94;20864969;28;20497;-69
2021/12/21 06:52:25;;;;;;;28.20;9.15;;;;;;;-3.68;100.00;101324.78;20864213;28;20083;-69
2021/12/21 07:02:27;;;;;;;22.67;9.90;;;;;;;-3.61;100.00;101337.13;20861173;28;20099;-68
2021/12/21 07:22:36;;;;;;;22.75;9.02;;;;;;;-3.59;100.00;101340.66;20859325;28;20099;-68
2021/12/21 07:32:37;;;;;;;26.55;10.15;;;;;;;-3.63;100.00;101331.94;20860631;28;20119;-68
2021/12/21 07:42:39;;;;;;;39.50;12.30;;;;;;;-3.59;100.00;101333.00;20858982;28;20135;-68
2021/12/21 07:52:41;;;;;;;31.38;10.65;;;;;;;-3.55;100.00;101332.34;20857426;28;20108;-68
2021/12/21 08:02:42;;;;;;;24.98;9.55;;;;;;;-3.43;100.00;101337.28;20864872;28;20053;-68
2021/12/21 08:12:44;;;;;;;24.17;11.70;;;;;;;-3.43;100.00;101350.06;20863315;28;20049;-67
2021/12/21 08:22:46;;;;;;;24.08;10.63;;;;;;;-3.19;100.00;101335.19;20852756;28;20045;-68
2021/12/21 08:32:48;;;;;;;23.10;10.45;;;;;;;-2.96;99.46;101345.00;20848846;28;20095;-67
2021/12/21 08:42:51;;;;;;;27.02;10.50;;;;;;;-2.78;99.70;101352.75;20870153;28;20057;-67
2021/12/21 08:52:52;;;;;;;26.20;11.00;;;;;;;-2.63;99.66;101357.84;20864292;28;20045;-67
2021/12/21 09:02:54;;;;;;;21.35;10.75;;;;;;;-2.32;99.02;101353.50;20863301;28;20045;-66
2021/12/21 09:12:56;;;;;;;25.02;10.57;;;;;;;-2.17;98.20;101343.13;20866934;28;20084;-66
2021/12/21 09:22:59;;;;;;;20.92;10.68;;;;;;;-1.94;97.47;101349.41;20864587;28;20057;-67
2021/12/21 09:33:01;;;;;;;30.40;10.23;;;;;;;-1.77;97.31;101342.56;20860674;28;20057;-66
2021/12/21 09:43:02;;;;;;;25.38;11.57;;;;;;;-1.44;96.17;101335.59;20863029;28;20077;-66
2021/12/21 09:53:04;;;;;;;20.35;10.60;;;;;;;-1.04;95.15;101327.19;20857011;28;20123;-68
2021/12/21 10:03:09;;;;;;;24.23;11.25;;;;;;;-0.74;93.64;101329.38;20859096;28;20041;-66
2021/12/21 10:13:18;;;;;;;21.05;10.13;;;;;;;-0.51;91.04;101331.28;20862801;28;20418;-68
2021/12/21 10:23:28;;;;;;;19.02;8.45;;;;;;;-0.43;89.67;101314.50;20856062;28;20046;-68
2021/12/21 10:33:31;;;;;;;18.50;9.63;;;;;;;-0.17;89.01;101301.84;20858927;28;20095;-68
2021/12/21 10:43:32;;;;;;;19.05;8.82;;;;;;;-0.02;87.86;101294.75;20855348;28;20502;-68
2021/12/21 10:53:34;;;;;;;19.13;9.02;;;;;;;0.12;87.63;101296.22;20852908;28;20166;-68
2021/12/21 11:03:50;;;;;;;20.75;8.75;;;;;;;0.25;86.79;101293.31;20855512;28;20049;-68
2021/12/21 11:14:17;;;;;;;19.52;9.93;;;;;;;0.49;86.06;101269.34;20857744;28;20057;-68
2021/12/21 11:24:20;;;;;;;22.55;9.32;;;;;;;0.65;85.50;101256.22;20855782;28;20057;-68
2021/12/21 11:34:24;;;;;;;19.80;8.55;;;;;;;0.76;84.89;101249.75;20850208;28;20110;-68
2021/12/21 11:44:52;;;;;;;15.55;7.82;;;;;;;0.91;85.11;101233.09;20851769;28;20107;-68
2021/12/21 11:55:06;;;;;;;18.60;8.40;;;;;;;1.03;83.55;101231.88;20854239;28;20107;-68
2021/12/21 12:05:22;;;;;;;14.10;7.60;;;;;;;1.15;83.59;101231.44;20850216;28;20056;-68
2021/12/21 12:15:23;;;;;;;15.70;7.78;;;;;;;1.27;82.12;101229.28;20858754;28;20503;-67
2021/12/21 12:25:26;;;;;;;16.52;8.00;;;;;;;1.60;80.17;101220.94;20851588;28;20563;-67
2021/12/21 12:35:36;;;;;;;15.63;8.00;;;;;;;1.65;80.11;101209.06;20848533;28;20045;-67
2021/12/21 12:45:50;;;;;;;21.17;8.85;;;;;;;1.79;79.16;101205.25;20850771;28;20056;-67
2021/12/21 12:55:57;;;;;;;15.55;7.63;;;;;;;1.78;78.00;101203.50;20850631;28;20106;-67
2021/12/21 13:06:22;;;;;;;15.20;6.63;;;;;;;1.95;77.36;101187.66;20847984;28;20095;-67
2021/12/21 13:16:26;;;;;;;13.43;6.82;;;;;;;2.15;77.37;101186.56;20850833;28;20115;-67
2021/12/21 13:26:51;;;;;;;19.60;6.87;;;;;;;2.20;75.97;101174.66;20860877;28;20118;-67
2021/12/21 13:36:55;;;;;;;14.20;7.07;;;;;;;2.19;75.60;101175.50;20945112;28;20456;-67
2021/12/21 13:47:02;;;;;;;;;;;;;;;2.30;75.25;101175.84;20935650;28;20053;-67
2021/12/21 13:57:22;;;;;;;10.73;6.07;;;;;;;2.42;73.10;101180.50;20859064;28;20267;-67
2021/12/21 14:07:23;;;;;;;15.43;5.30;;;;;;;2.29;72.01;101172.38;20859084;28;20457;-67
2021/12/21 14:17:27;;;;;;;14.10;5.15;;;;;;;2.35;72.02;101173.38;20857961;28;20045;-67
2021/12/21 14:27:29;;;;;;;11.55;5.43;;;;;;;2.35;72.34;101183.72;20856375;28;20053;-67
2021/12/21 14:37:31;;;;;;;9.75;4.43;;;;;;;2.33;70.95;101187.97;20857216;28;20049;-67
2021/12/21 14:47:34;;;;;;;8.18;4.28;;;;;;;2.21;69.77;101170.41;20856147;28;20057;-67
2021/12/21 14:58:15;;;;;;;11.77;3.80;;;;;;;2.08;68.89;101174.31;20856404;28;20054;-66
2021/12/21 15:08:20;;;;;;;9.45;4.90;;;;;;;1.90;69.51;101173.72;20722341;28;20106;-67
2021/12/21 15:18:24;;;;;;;16.45;6.32;;;;;;;1.66;70.64;101184.13;20855234;28;20053;-67
2021/12/21 15:28:26;;;;;;;11.50;5.90;;;;;;;1.41;72.22;101193.66;20855063;28;20395;-66
2021/12/21 15:38:27;;;;;;;22.17;10.95;;;;;;;1.12;74.45;101199.50;20849984;28;20037;-67
2021/12/21 15:48:29;;;;;;;20.40;10.80;;;;;;;0.61;78.09;101202.81;20852019;28;20098;-67
2021/12/21 15:58:31;;;;;;;37.78;19.25;;;;;;;0.55;77.72;101199.13;20850661;28;20049;-70
2021/12/21 16:08:33;;;;;;;24.23;11.77;;;;;;;0.47;78.31;101203.97;20851126;28;20044;-68
2021/12/21 16:18:34;;;;;;;24.10;11.77;;;;;;;0.31;79.24;101199.09;20853118;28;20049;-67
2021/12/21 16:28:36;;;;;;;28.67;13.63;;;;;;;0.04;79.75;101210.03;20851578;28;20523;-68
2021/12/21 16:38:38;;;;;;;38.80;17.90;;;;;;;-0.18;81.47;101213.47;20847556;28;20135;-68
2021/12/21 16:48:41;;;;;;;13.45;7.70;;;;;;;-0.64;85.38;101231.25;20849220;28;20057;-67
2021/12/21 16:58:47;;;;;;;14.15;6.55;;;;;;;-1.09;86.66;101236.16;20854212;28;20046;-68
2021/12/21 17:08:55;;;;;;;16.58;9.02;;;;;;;-1.24;88.52;101246.63;20863792;28;20412;-68
2021/12/21 17:18:56;;;;;;;24.30;13.70;;;;;;;-1.23;88.54;101262.91;20865986;28;20125;-68
2021/12/21 17:28:58;;;;;;;54.63;26.27;;;;;;;-1.08;87.06;101261.03;20859514;28;20257;-67
2021/12/21 17:39:03;;;;;;;30.27;15.38;;;;;;;-1.00;86.43;101275.13;20869136;28;20048;-70
2021/12/21 17:49:06;;;;;;;23.25;12.25;;;;;;;-0.92;85.64;101273.75;20859248;28;20308;-67
2021/12/21 17:59:08;;;;;;;20.50;10.50;;;;;;;-0.88;85.19;101278.22;20860797;28;20118;-67
2021/12/21 18:09:09;;;;;;;23.58;12.02;;;;;;;-0.97;85.54;101288.09;20855122;28;20057;-67
2021/12/21 18:19:11;;;;;;;40.20;19.38;;;;;;;-1.05;85.98;101294.59;20866952;28;20088;-67
2021/12/21 18:29:16;;;;;;;20.38;8.85;;;;;;;-1.17;86.11;101320.59;20863458;28;20052;-67
2021/12/21 18:39:23;;;;;;;19.90;9.93;;;;;;;-1.34;87.09;101321.50;20856007;28;20045;-67
2021/12/21 18:49:24;;;;;;;28.13;12.98;;;;;;;-1.42;88.42;101313.44;20853447;28;20045;-67
2021/12/21 18:59:26;;;;;;;53.83;22.90;;;;;;;-1.51;88.61;101307.84;20861360;28;20055;-67
2021/12/21 19:09:28;;;;;;;37.67;18.70;;;;;;;-1.45;88.95;101309.84;20855120;28;20045;-67
2021/12/21 19:19:29;;;;;;;33.42;17.08;;;;;;;-1.46;89.65;101308.97;20857429;28;20045;-67
2021/12/21 19:29:31;;;;;;;36.08;17.25;;;;;;;-1.45;90.05;101313.28;20853928;28;20053;-68
2021/12/21 19:39:32;;;;;;;27.40;12.85;;;;;;;-1.58;89.78;101326.38;20851494;28;20501;-67
2021/12/21 19:49:35;;;;;;;26.23;13.98;;;;;;;-1.62;90.52;101334.72;20850156;28;20049;-66
2021/12/21 19:59:37;;;;;;;30.35;15.88;;;;;;;-1.59;90.36;101343.44;20850982;28;20107;-69
2021/12/21 20:09:38;;;;;;;29.83;15.70;;;;;;;-1.65;91.24;101339.69;20847828;28;20049;-67
2021/12/21 20:19:44;;;;;;;24.67;13.80;;;;;;;-1.69;91.04;101327.53;20862333;28;20481;-67
2021/12/21 20:29:46;;;;;;;28.52;15.45;;;;;;;-1.73;91.40;101338.44;20852405;28;20053;-67
2021/12/21 20:39:47;;;;;;;39.03;19.77;;;;;;;-1.68;92.21;101339.53;20865992;28;20053;-67
2021/12/21 20:49:49;;;;;;;34.75;17.55;;;;;;;-1.75;92.87;101340.06;20885273;28;20464;-67
2021/12/21 20:59:50;;;;;;;28.95;15.30;;;;;;;-1.74;93.02;101352.09;20878699;28;20190;-68
2021/12/21 21:09:52;;;;;;;37.03;17.35;;;;;;;-1.73;92.82;101344.44;20884906;28;20106;-67
2021/12/21 21:19:53;;;;;;;29.50;14.48;;;;;;;-1.79;93.73;101351.84;20871774;28;20049;-67
2021/12/21 21:29:55;;;;;;;27.77;13.07;;;;;;;-1.98;94.12;101364.59;20862046;28;20058;-67
2021/12/21 21:39:56;;;;;;;30.15;13.90;;;;;;;-2.08;94.37;101369.25;20862845;28;20183;-67
2021/12/21 21:49:59;;;;;;;36.55;16.13;;;;;;;-1.94;94.10;101361.38;20859517;28;20049;-68
2021/12/21 22:00:00;;;;;;;33.40;14.95;;;;;;;-1.91;94.19;101364.09;20860804;28;20045;-67
2021/12/21 22:10:03;;;;;;;27.80;15.02;;;;;;;-1.81;94.42;101369.75;20861451;28;20053;-67
2021/12/21 22:20:05;;;;;;;30.20;14.07;;;;;;;-1.79;94.28;101374.97;20858551;28;20482;-67
2021/12/21 22:30:10;;;;;;;32.97;16.85;;;;;;;-1.88;94.09;101367.69;20856867;28;20292;-68
2021/12/21 22:40:12;;;;;;;31.10;15.75;;;;;;;-1.96;95.38;101383.53;20857760;28;20449;-66
2021/12/21 22:50:13;;;;;;;30.88;14.93;;;;;;;-2.02;95.62;101394.34;20854376;28;20502;-68
2021/12/21 23:00:39;;;;;;;37.85;17.50;;;;;;;-1.92;94.79;101383.72;20852516;28;20056;-67
2021/12/21 23:10:42;;;;;;;30.65;14.32;;;;;;;-1.99;95.06;101394.50;20867134;28;20049;-67
2021/12/21 23:20:44;;;;;;;33.28;15.73;;;;;;;-2.03;95.13;101401.97;20860215;28;20449;-67
2021/12/21 23:30:46;;;;;;;32.03;15.40;;;;;;;-2.15;95.93;101413.38;20860253;28;20045;-67
2021/12/21 23:40:47;;;;;;;33.88;15.75;;;;;;;-2.29;96.46;101406.66;20859053;28;20091;-67
2021/12/21 23:50:49;;;;;;;28.15;15.15;;;;;;;-2.29;96.65;101408.34;20857570;28;20049;-68
